Time;durP1;ratioP1;P1;durP2;ratioP2;P2;SDS_P1;SDS_P2;PMS_P1;PMS_P2;Temp;Humidity;BMP_temperature;BMP_pressure;BME280_temperature;BME280_humidity;BME280_pressure;Samples;Min_cycle;Max_cycle;Signal;HPM_P1;HPM_P2
2023/06/15 00:00:28;;;;;;;6.28;5.55;;;;;;;20.87;43.15;101701.94;5072291;28;20648;-67
2023/06/15 00:02:53;;;;;;;7.50;5.60;;;;;;;20.80;43.43;101707.09;5072722;28;20033;-67
2023/06/15 00:05:18;;;;;;;7.28;5.43;;;;;;;20.79;43.68;101696.94;5071791;28;20029;-66
2023/06/15 00:07:44;;;;;;;8.50;5.88;;;;;;;20.72;43.71;101702.94;5073178;28;20030;-67
2023/06/15 00:10:11;;;;;;;7.13;5.75;;;;;;;20.71;43.92;101698.47;5073072;28;20025;-67
2023/06/15 00:12:36;;;;;;;6.43;5.82;;;;;;;20.66;43.62;101701.31;5069062;28;20021;-67
2023/06/15 00:15:02;;;;;;;8.48;6.00;;;;;;;20.60;43.74;101694.06;5067956;28;20113;-67
2023/06/15 00:17:30;;;;;;;6.00;5.50;;;;;;;20.55;43.94;101696.94;5072367;28;20024;-67
2023/06/15 00:19:57;;;;;;;6.43;5.57;;;;;;;20.53;43.97;101704.88;5072411;28;20047;-66
2023/06/15 00:22:26;;;;;;;6.82;5.40;;;;;;;20.49;44.42;101696.16;5072906;28;20027;-66
2023/06/15 00:24:52;;;;;;;7.70;5.78;;;;;;;20.47;44.26;101704.03;5070754;28;20032;-66
2023/06/15 00:27:17;;;;;;;7.43;5.93;;;;;;;20.45;44.40;101697.88;5072815;28;20036;-67
2023/06/15 00:29:43;;;;;;;6.40;5.78;;;;;;;20.44;44.40;101703.81;5072187;28;20566;-66
2023/06/15 00:32:08;;;;;;;10.00;6.05;;;;;;;20.40;44.45;101702.75;5060974;28;20072;-67
2023/06/15 00:34:33;;;;;;;6.38;5.72;;;;;;;20.39;44.24;101701.03;5051523;28;20029;-66
2023/06/15 00:36:59;;;;;;;6.68;6.00;;;;;;;20.38;44.57;101707.84;5052065;28;20091;-67
2023/06/15 00:39:24;;;;;;;8.27;5.57;;;;;;;20.33;44.59;101705.91;5051831;28;20028;-66
2023/06/15 00:41:50;;;;;;;6.72;5.60;;;;;;;20.26;45.17;101713.88;5051796;28;20035;-66
2023/06/15 00:44:15;;;;;;;6.38;5.57;;;;;;;20.26;44.99;101713.88;5052565;28;20029;-66
2023/06/15 00:46:41;;;;;;;8.15;5.47;;;;;;;20.19;45.00;101714.22;5067514;28;20075;-66
2023/06/15 00:49:08;;;;;;;7.20;6.05;;;;;;;20.14;45.31;101714.28;5059672;28;20045;-66
2023/06/15 00:51:34;;;;;;;7.72;6.05;;;;;;;20.08;45.35;101713.50;5069837;28;20540;-67
2023/06/15 00:54:00;;;;;;;7.32;6.00;;;;;;;20.08;45.28;101712.63;5071509;28;20229;-66
2023/06/15 00:56:29;;;;;;;7.20;6.35;;;;;;;20.05;45.19;101711.25;5071820;28;20032;-67
2023/06/15 00:58:54;;;;;;;7.55;6.18;;;;;;;20.05;45.35;101713.25;5071987;28;20029;-66
2023/06/15 01:01:20;;;;;;;7.32;6.72;;;;;;;20.05;45.37;101713.25;5077599;28;20035;-66
2023/06/15 01:03:45;;;;;;;8.25;6.55;;;;;;;20.02;45.46;101716.66;5078182;28;20043;-67
2023/06/15 01:06:13;;;;;;;7.07;5.88;;;;;;;19.95;46.13;101704.88;5075098;28;20031;-67
2023/06/15 01:08:40;;;;;;;6.85;6.20;;;;;;;19.95;45.99;101716.13;5091577;28;20063;-67
2023/06/15 01:11:06;;;;;;;10.90;6.40;;;;;;;19.93;46.07;101709.97;5073165;28;20028;-66
2023/06/15 01:13:34;;;;;;;6.63;5.60;;;;;;;19.86;46.45;101710.31;5091844;28;20035;-66
2023/06/15 01:16:06;;;;;;;7.30;6.20;;;;;;;19.85;46.30;101715.09;5074218;28;20063;-66
2023/06/15 01:18:34;;;;;;;6.70;6.10;;;;;;;19.79;46.21;101713.44;5071301;28;20021;-66
2023/06/15 01:21:04;;;;;;;8.65;6.03;;;;;;;19.75;46.23;101712.38;5070999;28;20741;-66
2023/06/15 01:23:43;;;;;;;8.10;6.85;;;;;;;19.77;45.99;101718.56;5071208;28;20075;-67
2023/06/15 01:26:11;;;;;;;9.77;6.45;;;;;;;19.74;46.26;101726.75;5062628;28;20068;-67
2023/06/15 01:28:41;;;;;;;7.30;6.50;;;;;;;19.69;46.75;101719.19;5070783;28;20037;-66
2023/06/15 01:31:08;;;;;;;9.18;6.68;;;;;;;19.74;46.60;101721.13;5070377;28;20380;-67
2023/06/15 01:33:33;;;;;;;7.15;6.45;;;;;;;19.69;47.03;101723.94;5071238;28;20492;-66
2023/06/15 01:35:59;;;;;;;8.02;6.13;;;;;;;19.68;46.67;101719.47;5070341;28;20028;-66
2023/06/15 01:38:27;;;;;;;8.65;5.97;;;;;;;19.65;46.69;101726.53;5071322;28;20028;-66
2023/06/15 01:40:55;;;;;;;7.75;6.10;;;;;;;19.61;46.87;101731.91;5071082;28;20029;-66
2023/06/15 01:43:24;;;;;;;8.65;5.80;;;;;;;19.59;47.02;101728.50;5065241;28;20033;-66
2023/06/15 01:45:51;;;;;;;8.20;6.20;;;;;;;19.52;47.33;101730.81;5059024;28;20028;-66
2023/06/15 01:48:17;;;;;;;13.35;6.65;;;;;;;19.43;47.72;101731.72;5074502;28;20028;-66
2023/06/15 01:50:43;;;;;;;8.68;5.95;;;;;;;19.42;47.89;101728.06;5073917;28;20033;-67
2023/06/15 01:53:09;;;;;;;9.82;6.13;;;;;;;19.50;47.66;101730.28;5083528;28;20069;-66
2023/06/15 01:55:34;;;;;;;11.13;6.30;;;;;;;19.48;47.73;101729.72;5090946;28;20024;-66
2023/06/15 01:58:00;;;;;;;6.90;5.90;;;;;;;19.40;47.80;101733.13;5084947;28;20122;-67
2023/06/15 02:00:25;;;;;;;10.85;6.43;;;;;;;19.37;47.92;101716.81;5069363;28;20476;-66
2023/06/15 02:02:51;;;;;;;8.88;6.20;;;;;;;19.41;47.83;101733.97;5069649;28;20033;-67
2023/06/15 02:05:17;;;;;;;10.27;6.60;;;;;;;19.31;47.63;101726.44;5069795;28;20028;-66
2023/06/15 02:07:43;;;;;;;8.48;6.32;;;;;;;19.27;47.75;101726.19;5070728;28;20089;-67
2023/06/15 02:10:09;;;;;;;8.00;6.85;;;;;;;19.27;47.81;101720.56;5069636;28;20032;-67
2023/06/15 02:12:34;;;;;;;9.55;6.43;;;;;;;19.22;48.12;101722.56;5069663;28;20162;-66
2023/06/15 02:15:01;;;;;;;9.55;6.82;;;;;;;19.25;48.10;101725.63;5070122;28;20071;-66
2023/06/15 02:17:30;;;;;;;8.88;6.47;;;;;;;19.22;48.37;101723.41;5061763;28;20679;-67
2023/06/15 02:19:56;;;;;;;7.85;6.13;;;;;;;19.22;48.08;101728.22;5070733;28;20698;-66
2023/06/15 02:22:21;;;;;;;8.20;7.28;;;;;;;19.17;48.04;101717.78;5070339;28;20070;-67
2023/06/15 02:24:46;;;;;;;9.57;6.70;;;;;;;19.16;48.09;101726.53;5068646;28;20028;-67
2023/06/15 02:27:12;;;;;;;10.02;6.55;;;;;;;19.16;48.37;101730.19;5070045;28;20070;-67
2023/06/15 02:29:38;;;;;;;8.27;7.25;;;;;;;19.08;48.76;101731.63;5069868;28;20039;-67
2023/06/15 02:32:03;;;;;;;7.57;6.82;;;;;;;19.08;48.51;101736.41;5069783;28;20036;-67
2023/06/15 02:34:28;;;;;;;7.72;6.80;;;;;;;19.05;48.68;101732.19;5063400;28;20035;-67
2023/06/15 02:36:54;;;;;;;9.52;6.82;;;;;;;19.10;48.71;101739.81;5078142;28;20047;-67
2023/06/15 02:39:21;;;;;;;7.20;6.50;;;;;;;18.99;49.26;101735.34;5082998;28;20441;-67
2023/06/15 02:41:46;;;;;;;7.72;6.53;;;;;;;19.01;49.11;101741.50;5071049;28;20198;-67
2023/06/15 02:44:11;;;;;;;7.85;7.07;;;;;;;18.99;48.93;101744.63;5074631;28;20032;-66
2023/06/15 02:46:37;;;;;;;7.72;6.90;;;;;;;18.96;49.06;101739.56;5084032;28;20150;-66
2023/06/15 02:49:02;;;;;;;8.10;6.63;;;;;;;18.91;49.30;101744.38;5068899;28;20170;-66
2023/06/15 02:51:28;;;;;;;9.82;6.30;;;;;;;18.93;49.37;101747.75;5076736;28;20468;-67
2023/06/15 02:53:53;;;;;;;8.45;7.03;;;;;;;18.92;49.30;101744.09;5053417;28;20036;-66
2023/06/15 02:56:19;;;;;;;10.43;6.72;;;;;;;18.83;49.54;101743.84;5070364;28;20085;-67
2023/06/15 02:58:47;;;;;;;8.27;6.97;;;;;;;18.81;49.52;101748.91;5070170;28;20042;-66
2023/06/15 03:01:15;;;;;;;7.57;6.70;;;;;;;18.79;49.71;101744.72;5077179;28;20093;-67
2023/06/15 03:03:42;;;;;;;9.27;6.90;;;;;;;18.73;49.79;101743.88;5078331;28;20032;-67
2023/06/15 03:06:08;;;;;;;8.10;6.90;;;;;;;18.74;49.84;101747.53;5070657;28;20039;-66
2023/06/15 03:08:34;;;;;;;12.55;6.55;;;;;;;18.71;49.88;101746.16;5063094;28;20029;-67
2023/06/15 03:11:00;;;;;;;7.43;5.90;;;;;;;18.69;49.97;101751.16;5066051;28;20114;-65
2023/06/15 03:13:25;;;;;;;7.13;6.50;;;;;;;18.67;49.78;101752.56;5076718;28;20040;-66
2023/06/15 03:15:51;;;;;;;8.18;6.63;;;;;;;18.56;50.13;101758.25;5085503;28;20127;-66
2023/06/15 03:18:16;;;;;;;10.50;6.50;;;;;;;18.56;50.13;101746.16;5072445;28;20668;-66
2023/06/15 03:20:43;;;;;;;12.40;6.97;;;;;;;18.50;50.29;101750.09;5088826;28;20031;-66
2023/06/15 03:23:12;;;;;;;9.20;7.00;;;;;;;18.50;50.37;101756.56;5080903;28;20785;-65
2023/06/15 03:25:37;;;;;;;7.70;6.45;;;;;;;18.56;50.25;101752.63;5067495;28;20029;-66
2023/06/15 03:28:03;;;;;;;11.18;7.25;;;;;;;18.50;50.42;101753.75;5073162;28;20029;-66
2023/06/15 03:30:29;;;;;;;10.10;7.03;;;;;;;18.49;50.47;101751.22;5073496;28;20047;-66
2023/06/15 03:32:54;;;;;;;8.80;6.88;;;;;;;18.52;50.50;101751.50;5076432;28;20503;-66
2023/06/15 03:35:21;;;;;;;8.02;6.78;;;;;;;18.46;50.69;101749.81;5073267;28;20033;-66
2023/06/15 03:37:46;;;;;;;9.75;7.70;;;;;;;18.39;50.86;101749.25;5073609;28;20036;-66
2023/06/15 03:40:12;;;;;;;8.75;7.95;;;;;;;18.46;50.52;101754.59;5082792;28;20042;-66
2023/06/15 03:42:38;;;;;;;10.70;7.88;;;;;;;18.35;51.03;101751.84;5068844;28;20047;-66
2023/06/15 03:45:05;;;;;;;9.27;7.43;;;;;;;18.37;51.11;101749.56;5093671;28;20052;-67
2023/06/15 03:47:32;;;;;;;8.90;8.00;;;;;;;18.34;51.38;101747.31;5091405;28;20075;-66
2023/06/15 03:49:57;;;;;;;9.18;7.22;;;;;;;18.34;51.41;101750.13;5076228;28;20028;-66
2023/06/15 03:52:22;;;;;;;12.00;7.97;;;;;;;18.34;51.07;101747.31;5093233;28;20153;-66
2023/06/15 03:54:48;;;;;;;9.18;7.47;;;;;;;18.35;51.16;101750.97;5093448;28;20460;-66
2023/06/15 03:57:13;;;;;;;10.13;7.78;;;;;;;18.37;51.29;101754.34;5074401;28;20033;-66
2023/06/15 03:59:38;;;;;;;9.18;7.75;;;;;;;18.32;51.35;101749.59;5058309;28;20469;-67
2023/06/15 04:02:04;;;;;;;10.52;7.72;;;;;;;18.34;51.16;101752.94;5072477;28;20027;-67
2023/06/15 04:04:32;;;;;;;10.25;7.65;;;;;;;18.29;51.34;101764.19;5071990;28;20051;-67
2023/06/15 04:06:57;;;;;;;9.85;7.78;;;;;;;18.29;51.62;101761.38;5073018;28;20029;-66
2023/06/15 04:09:22;;;;;;;9.30;7.40;;;;;;;18.32;51.40;101760.81;5073007;28;20028;-66
2023/06/15 04:11:48;;;;;;;8.27;7.38;;;;;;;18.26;52.00;101766.72;5072529;28;20037;-66
2023/06/15 04:14:14;;;;;;;11.85;8.30;;;;;;;18.28;51.89;101767.31;5071001;28;20045;-66
2023/06/15 04:16:39;;;;;;;9.02;7.60;;;;;;;18.25;52.09;101763.06;5066310;28;20028;-66
2023/06/15 04:19:04;;;;;;;10.88;7.55;;;;;;;18.30;51.91;101771.50;5073047;28;20035;-66
2023/06/15 04:21:30;;;;;;;9.15;8.20;;;;;;;18.24;52.03;101778.25;5072601;28;20108;-66
2023/06/15 04:23:56;;;;;;;11.90;8.77;;;;;;;18.26;52.15;101776.00;5071982;28;20029;-66
2023/06/15 04:26:21;;;;;;;9.38;7.47;;;;;;;18.30;52.06;101781.91;5072957;28;20457;-66
2023/06/15 04:28:49;;;;;;;11.95;8.68;;;;;;;18.33;52.25;101782.19;5071456;28;20060;-66
2023/06/15 04:31:17;;;;;;;11.15;8.65;;;;;;;18.31;52.62;101787.25;5071621;28;20032;-66
2023/06/15 04:33:43;;;;;;;12.90;9.85;;;;;;;18.37;52.49;101783.28;5063126;28;20094;-66
2023/06/15 04:36:12;;;;;;;10.88;8.98;;;;;;;18.42;52.12;101790.03;5071667;28;20029;-66
2023/06/15 04:38:46;;;;;;;10.80;9.75;;;;;;;18.37;52.10;101786.09;5071852;28;20029;-66
2023/06/15 04:41:12;;;;;;;12.80;10.13;;;;;;;18.43;51.91;101781.34;5069335;28;20024;-66
2023/06/15 04:43:37;;;;;;;11.40;10.20;;;;;;;18.48;51.95;101783.28;5071276;28;20111;-66
2023/06/15 04:46:02;;;;;;;11.65;10.43;;;;;;;18.55;52.01;101792.25;5079182;28;20139;-66
2023/06/15 04:48:28;;;;;;;12.00;10.38;;;;;;;18.54;52.50;101785.78;5059663;28;20036;-66
2023/06/15 04:50:56;;;;;;;13.02;10.55;;;;;;;18.58;52.08;101794.50;5051937;28;20075;-66
2023/06/15 04:53:21;;;;;;;13.65;10.77;;;;;;;18.60;52.44;101786.63;5076972;28;20101;-66
2023/06/15 04:55:48;;;;;;;11.75;10.55;;;;;;;18.59;52.64;101790.59;5092948;28;20467;-67
2023/06/15 04:58:14;;;;;;;12.27;11.18;;;;;;;18.64;52.60;101805.47;5081433;28;20090;-66
2023/06/15 05:00:39;;;;;;;12.18;10.68;;;;;;;18.68;52.33;101796.47;5050776;28;20037;-66
2023/06/15 05:03:04;;;;;;;13.13;11.63;;;;;;;18.70;51.18;101803.50;5051795;28;20025;-66
2023/06/15 05:05:30;;;;;;;13.25;11.20;;;;;;;18.80;51.29;101794.22;5052079;28;20039;-66
2023/06/15 05:07:55;;;;;;;12.48;11.05;;;;;;;18.87;50.49;101791.94;5051201;28;20042;-66
2023/06/15 05:10:21;;;;;;;13.32;11.55;;;;;;;18.85;50.79;101800.66;5051673;28;20575;-66
2023/06/15 05:12:46;;;;;;;12.50;11.10;;;;;;;18.89;50.65;101807.38;5052170;28;20044;-65
2023/06/15 05:15:11;;;;;;;13.30;11.90;;;;;;;18.96;50.35;101798.66;5050553;28;20497;-66
2023/06/15 05:17:37;;;;;;;13.73;12.25;;;;;;;19.06;50.21;101800.56;5059203;28;20044;-67
2023/06/15 05:20:05;;;;;;;15.70;12.02;;;;;;;19.05;50.22;101808.19;5050946;28;20021;-66
2023/06/15 05:22:31;;;;;;;20.52;13.27;;;;;;;19.11;50.43;101795.78;5051341;28;20033;-66
2023/06/15 05:24:56;;;;;;;17.13;12.82;;;;;;;19.11;50.33;101801.41;5051679;28;20068;-66
2023/06/15 05:27:21;;;;;;;14.82;12.52;;;;;;;19.21;50.88;101802.50;5050340;28;20029;-66
2023/06/15 05:29:46;;;;;;;18.27;13.40;;;;;;;19.26;50.41;101796.84;5051733;28;20499;-67
2023/06/15 05:32:12;;;;;;;13.93;12.48;;;;;;;19.29;50.26;101799.91;5058407;28;20041;-66
2023/06/15 05:34:37;;;;;;;14.20;11.98;;;;;;;19.41;49.94;101807.19;5060170;28;20040;-67
2023/06/15 05:37:02;;;;;;;16.85;12.95;;;;;;;19.42;49.69;101815.34;5051685;28;20020;-66
2023/06/15 05:39:27;;;;;;;17.42;12.95;;;;;;;19.47;50.26;101804.06;5051141;28;20037;-66
2023/06/15 05:41:53;;;;;;;16.63;13.30;;;;;;;19.56;50.17;101821.19;5062617;28;20089;-67
2023/06/15 05:44:21;;;;;;;17.17;13.45;;;;;;;19.57;50.17;101822.84;5053675;28;20032;-67
2023/06/15 05:46:46;;;;;;;16.27;12.75;;;;;;;19.64;50.38;101816.94;5070785;28;20113;-67
2023/06/15 05:49:12;;;;;;;14.52;13.13;;;;;;;19.73;49.45;101815.19;5069526;28;20032;-67
2023/06/15 05:51:37;;;;;;;15.23;13.18;;;;;;;19.80;49.23;101813.72;5071370;28;20029;-67
2023/06/15 05:54:03;;;;;;;14.60;13.13;;;;;;;19.89;49.42;101819.59;5071078;28;20028;-67
2023/06/15 05:56:28;;;;;;;14.10;12.70;;;;;;;19.93;49.12;101812.25;5063535;28;20339;-66
2023/06/15 05:58:53;;;;;;;14.73;13.15;;;;;;;20.00;49.67;101820.34;5066617;28;20038;-66
2023/06/15 06:01:19;;;;;;;15.93;14.32;;;;;;;20.01;49.99;101817.25;5063788;28;20121;-67
2023/06/15 06:03:44;;;;;;;17.33;12.40;;;;;;;20.16;51.17;101813.47;5070863;28;20749;-66
2023/06/15 06:06:10;;;;;;;6.53;5.93;;;;;;;20.39;49.44;101806.22;5087206;28;20103;-66
2023/06/15 06:08:35;;;;;;;6.00;5.00;;;;;;;20.55;48.83;101806.94;5091083;28;20553;-66
2023/06/15 06:11:01;;;;;;;9.32;6.13;;;;;;;20.72;48.54;101807.34;5077730;28;20020;-66
2023/06/15 06:13:26;;;;;;;10.43;7.55;;;;;;;20.83;48.41;101811.72;5062783;28;20027;-66
2023/06/15 06:15:52;;;;;;;7.63;5.75;;;;;;;20.97;48.18;101805.34;5067355;28;20048;-65
2023/06/15 06:18:17;;;;;;;7.55;5.55;;;;;;;21.07;48.05;101805.25;5066661;28;20020;-66
2023/06/15 06:20:42;;;;;;;8.50;5.85;;;;;;;21.16;47.93;101809.06;5085287;28;20071;-66
2023/06/15 06:23:08;;;;;;;7.00;6.00;;;;;;;21.30;47.71;101807.22;5089787;28;20039;-65
2023/06/15 06:25:33;;;;;;;10.70;7.07;;;;;;;21.33;47.46;101806.63;5086838;28;20116;-66
2023/06/15 06:27:58;;;;;;;9.25;7.40;;;;;;;21.43;47.69;101808.47;5087839;28;20048;-65
2023/06/15 06:30:23;;;;;;;8.90;6.63;;;;;;;21.49;47.48;101812.91;5084199;28;20056;-65
2023/06/15 06:32:49;;;;;;;10.60;6.78;;;;;;;21.54;47.37;101812.84;5068965;28;20377;-65
2023/06/15 06:35:15;;;;;;;10.63;6.80;;;;;;;21.61;47.58;101805.97;5075452;28;20039;-65
2023/06/15 06:37:40;;;;;;;7.78;6.05;;;;;;;21.68;47.37;101809.25;5088148;28;20028;-66
2023/06/15 06:40:06;;;;;;;11.85;8.00;;;;;;;21.67;46.76;101811.25;5090889;28;20028;-67
2023/06/15 06:42:31;;;;;;;9.05;6.20;;;;;;;21.81;47.46;101812.16;5083269;28;20885;-68
2023/06/15 06:44:57;;;;;;;7.55;6.03;;;;;;;21.87;47.96;101807.25;5063787;28;20105;-67
2023/06/15 06:47:22;;;;;;;10.88;6.57;;;;;;;21.93;47.62;101810.84;5068332;28;20028;-64
2023/06/15 06:49:47;;;;;;;7.88;6.50;;;;;;;21.96;47.66;101811.06;5060932;28;20032;-68
2023/06/15 06:52:13;;;;;;;11.75;6.53;;;;;;;22.03;46.84;101811.53;5062277;28;20106;-67
2023/06/15 06:54:38;;;;;;;7.05;5.90;;;;;;;22.10;47.15;101815.97;5075235;28;20370;-65
2023/06/15 06:57:04;;;;;;;8.50;6.38;;;;;;;22.11;47.44;101817.63;5068735;28;20139;-64
2023/06/15 06:59:29;;;;;;;9.35;6.70;;;;;;;22.14;47.09;101820.72;5061466;28;20032;-65
2023/06/15 07:01:55;;;;;;;11.63;6.38;;;;;;;22.14;46.26;101817.91;5066868;28;20044;-66
2023/06/15 07:04:20;;;;;;;8.52;5.65;;;;;;;22.26;46.85;101817.41;5069802;28;20124;-67
2023/06/15 07:06:45;;;;;;;9.88;6.38;;;;;;;22.30;46.66;101818.47;5066061;28;20075;-66
2023/06/15 07:09:11;;;;;;;9.40;5.50;;;;;;;22.37;46.20;101818.09;5060203;28;20032;-65
2023/06/15 07:11:37;;;;;;;10.40;7.07;;;;;;;22.36;45.55;101819.22;5073899;28;20117;-65
2023/06/15 07:14:03;;;;;;;11.77;6.80;;;;;;;22.42;44.61;101816.00;5056055;28;20040;-66
2023/06/15 07:16:31;;;;;;;9.57;6.07;;;;;;;22.48;45.82;101819.59;5065032;28;20058;-66
2023/06/15 07:18:58;;;;;;;7.50;5.25;;;;;;;22.52;45.61;101817.81;5073220;28;20040;-66
2023/06/15 07:21:23;;;;;;;8.63;5.78;;;;;;;22.55;45.08;101818.00;5055357;28;20112;-66
2023/06/15 07:23:48;;;;;;;8.60;5.45;;;;;;;22.59;44.10;101817.38;5053135;28;20108;-66
2023/06/15 07:26:14;;;;;;;10.68;6.43;;;;;;;22.58;43.44;101816.56;5053211;28;20036;-66
2023/06/15 07:28:39;;;;;;;9.23;6.18;;;;;;;22.66;44.32;101815.84;5052444;28;20480;-66
2023/06/15 07:31:05;;;;;;;8.02;5.65;;;;;;;22.73;43.30;101824.75;5064994;28;20044;-65
2023/06/15 07:33:30;;;;;;;7.15;5.05;;;;;;;22.80;43.95;101821.53;5071322;28;20449;-66
2023/06/15 07:35:55;;;;;;;7.88;5.60;;;;;;;22.86;43.18;101813.78;5067985;28;20051;-65
2023/06/15 07:38:21;;;;;;;11.32;6.82;;;;;;;22.92;42.58;101823.88;5058571;28;20037;-66
2023/06/15 07:40:46;;;;;;;6.38;5.13;;;;;;;22.93;43.53;101822.72;5070057;28;20046;-65
2023/06/15 07:43:11;;;;;;;9.07;5.75;;;;;;;23.03;41.96;101816.88;5057613;28;20029;-65
2023/06/15 07:45:37;;;;;;;9.52;5.07;;;;;;;23.04;42.47;101818.53;5069921;28;20040;-66
2023/06/15 07:48:03;;;;;;;7.72;5.15;;;;;;;23.08;41.94;101824.41;5059167;28;20032;-66
2023/06/15 07:50:29;;;;;;;9.10;5.93;;;;;;;23.18;41.61;101821.34;5052826;28;20084;-65
2023/06/15 07:52:54;;;;;;;9.70;5.78;;;;;;;23.20;41.60;101821.91;5052778;28;20453;-66
2023/06/15 07:55:20;;;;;;;7.82;4.50;;;;;;;23.25;40.02;101816.94;5059341;28;20033;-66
2023/06/15 07:57:45;;;;;;;6.80;3.92;;;;;;;23.30;39.96;101823.66;5072802;28;20024;-66
2023/06/15 08:00:11;;;;;;;7.40;4.03;;;;;;;23.39;39.67;101825.44;5082934;28;20039;-65
2023/06/15 08:02:36;;;;;;;6.28;3.72;;;;;;;23.40;39.56;101823.44;5079172;28;20040;-65
2023/06/15 08:05:02;;;;;;;9.60;4.50;;;;;;;23.45;41.19;101826.16;5058497;28;20028;-66
2023/06/15 08:07:28;;;;;;;5.72;3.60;;;;;;;23.48;40.05;101823.53;5073728;28;20123;-65
2023/06/15 08:09:54;;;;;;;8.05;4.43;;;;;;;23.55;40.74;101813.78;5071073;28;20449;-66
2023/06/15 08:12:19;;;;;;;6.05;4.05;;;;;;;23.66;39.11;101818.09;5072129;28;20036;-66
2023/06/15 08:14:45;;;;;;;6.03;3.95;;;;;;;23.64;37.58;101818.38;5072288;28;20044;-65
2023/06/15 08:17:10;;;;;;;4.78;3.38;;;;;;;23.70;37.69;101819.13;5071388;28;20469;-65
2023/06/15 08:19:36;;;;;;;7.07;3.58;;;;;;;23.73;36.83;101816.47;5071892;28;20047;-66
2023/06/15 08:22:02;;;;;;;9.18;3.67;;;;;;;23.82;37.54;101816.56;5059834;28;21988;-65
2023/06/15 08:24:28;;;;;;;8.55;3.60;;;;;;;23.92;36.67;101815.47;5051291;28;20031;-65
2023/06/15 08:26:53;;;;;;;4.82;3.40;;;;;;;24.00;37.32;101811.88;5051847;28;20115;-65
2023/06/15 08:29:19;;;;;;;6.25;3.38;;;;;;;24.02;36.58;101820.09;5052273;28;20468;-65
2023/06/15 08:31:45;;;;;;;8.63;3.58;;;;;;;24.05;35.36;101825.97;5051665;28;20091;-65
2023/06/15 08:34:10;;;;;;;5.75;3.45;;;;;;;24.07;35.51;101826.47;5052145;28;20064;-65
2023/06/15 08:36:37;;;;;;;6.15;3.90;;;;;;;24.16;34.85;101816.00;5054194;28;20039;-66
2023/06/15 08:39:03;;;;;;;7.85;3.33;;;;;;;24.32;34.71;101821.28;5071392;28;20028;-65
2023/06/15 08:41:30;;;;;;;5.45;3.72;;;;;;;24.38;35.51;101818.03;5071249;28;20012;-66
2023/06/15 08:43:55;;;;;;;9.98;3.60;;;;;;;24.43;34.93;101820.75;5071265;28;20025;-66
2023/06/15 08:46:23;;;;;;;7.10;3.60;;;;;;;24.39;34.07;101814.03;5067080;28;20024;-65
2023/06/15 08:48:51;;;;;;;6.32;3.78;;;;;;;24.49;34.39;101813.78;5064213;28;20024;-65
2023/06/15 08:51:17;;;;;;;6.38;4.13;;;;;;;24.50;34.33;101814.63;5071178;28;20086;-65
2023/06/15 08:53:43;;;;;;;3.83;3.22;;;;;;;24.55;34.54;101817.31;5070967;28;20752;-66
2023/06/15 08:56:13;;;;;;;5.45;3.38;;;;;;;24.56;34.56;101813.28;5064820;28;20029;-65
2023/06/15 08:58:39;;;;;;;10.10;3.58;;;;;;;24.70;34.87;101810.38;5069251;28;20514;-65
2023/06/15 09:01:06;;;;;;;5.57;3.55;;;;;;;24.61;34.33;101803.84;5071427;28;20432;-65
2023/06/15 09:03:35;;;;;;;8.35;3.67;;;;;;;24.64;33.63;101811.69;5071133;28;20100;-65
2023/06/15 09:06:00;;;;;;;5.28;3.72;;;;;;;24.68;33.84;101810.72;5070027;28;20040;-65
2023/06/15 09:08:26;;;;;;;4.90;3.42;;;;;;;24.79;33.90;101813.25;5071051;28;20032;-65
2023/06/15 09:11:05;;;;;;;6.13;3.38;;;;;;;24.80;35.19;101817.78;5064661;28;20032;-65
2023/06/15 09:13:33;;;;;;;4.20;3.55;;;;;;;24.69;33.70;101814.41;5070427;28;20040;-65
2023/06/15 09:15:59;;;;;;;5.93;3.75;;;;;;;24.68;34.18;101810.72;5071195;28;20035;-65
2023/06/15 09:18:25;;;;;;;5.45;3.78;;;;;;;24.70;32.69;101816.91;5070539;28;20051;-66
2023/06/15 09:20:50;;;;;;;6.57;3.40;;;;;;;24.76;32.82;101811.06;5069482;28;20110;-65
2023/06/15 09:23:15;;;;;;;6.35;3.55;;;;;;;24.78;32.99;101820.13;5071102;28;20487;-65
2023/06/15 09:25:51;;;;;;;7.13;3.53;;;;;;;24.87;33.40;101820.97;5069825;28;20041;-65
2023/06/15 09:28:21;;;;;;;5.40;3.40;;;;;;;24.95;33.85;101815.34;5061844;28;20101;-66
2023/06/15 09:30:52;;;;;;;5.65;3.45;;;;;;;24.94;33.63;101813.66;5072366;28;20456;-66
2023/06/15 09:33:19;;;;;;;6.45;3.80;;;;;;;24.92;32.95;101809.50;5070226;28;20040;-65
2023/06/15 09:36:05;;;;;;;5.45;3.60;;;;;;;24.73;33.82;101813.41;5070497;28;20024;-65
2023/06/15 09:38:32;;;;;;;6.43;3.60;;;;;;;24.68;33.04;101810.72;5069983;28;20172;-65
2023/06/15 09:41:05;;;;;;;4.80;3.35;;;;;;;24.72;33.26;101806.06;5070123;28;20036;-65
2023/06/15 09:43:34;;;;;;;4.05;3.58;;;;;;;24.82;33.09;101799.25;5067866;28;20452;-65
2023/06/15 09:46:00;;;;;;;6.43;3.50;;;;;;;24.93;33.36;101803.47;5068979;28;20119;-65
2023/06/15 09:48:27;;;;;;;7.32;3.78;;;;;;;25.15;33.16;101805.44;5062527;28;20107;-65
2023/06/15 09:50:53;;;;;;;4.22;3.50;;;;;;;25.22;32.88;101808.63;5068430;28;20036;-65
2023/06/15 09:53:19;;;;;;;7.38;4.05;;;;;;;25.12;32.54;101808.94;5069751;28;20032;-65
2023/06/15 09:55:48;;;;;;;8.75;3.85;;;;;;;24.98;33.16;101808.19;5069690;28;20060;-65
2023/06/15 09:58:13;;;;;;;6.78;3.95;;;;;;;24.88;32.87;101811.31;5070520;28;20108;-66
2023/06/15 10:00:39;;;;;;;7.53;3.88;;;;;;;24.81;33.32;101813.78;5069484;28;20384;-65
2023/06/15 10:03:07;;;;;;;7.97;4.10;;;;;;;24.70;32.96;101814.06;5069467;28;20032;-65
2023/06/15 10:05:36;;;;;;;7.47;4.40;;;;;;;24.59;32.72;101806.97;5069951;28;20039;-65
2023/06/15 10:08:04;;;;;;;7.72;4.20;;;;;;;24.53;33.05;101801.78;5048569;28;20035;-65
2023/06/15 10:10:30;;;;;;;5.30;3.67;;;;;;;24.50;32.55;101808.94;5049443;28;20039;-65
2023/06/15 10:12:58;;;;;;;7.32;3.50;;;;;;;24.44;33.74;101802.56;5050093;28;20037;-65
2023/06/15 10:15:24;;;;;;;6.25;3.55;;;;;;;24.62;34.04;101803.50;5060859;28;20055;-65
2023/06/15 10:17:52;;;;;;;5.65;3.63;;;;;;;24.57;33.29;101803.66;5069624;28;20036;-65
2023/06/15 10:20:21;;;;;;;6.18;3.97;;;;;;;24.73;33.37;101802.06;5069615;28;20034;-65
2023/06/15 10:22:50;;;;;;;6.28;4.03;;;;;;;24.61;32.72;101804.66;5069591;28;20020;-65
2023/06/15 10:25:16;;;;;;;4.07;3.63;;;;;;;24.62;32.64;101808.34;5056140;28;20041;-65
2023/06/15 10:27:44;;;;;;;4.32;3.85;;;;;;;24.70;32.20;101807.56;5049769;28;20044;-65
2023/06/15 10:30:20;;;;;;;6.82;3.42;;;;;;;24.79;32.37;101802.75;5048847;28;20460;-65
2023/06/15 10:32:53;;;;;;;7.00;3.88;;;;;;;24.90;32.65;101797.63;5069004;28;20110;-65
2023/06/15 10:35:27;;;;;;;7.63;3.70;;;;;;;25.16;32.32;101806.28;5070280;28;20032;-65
2023/06/15 10:38:18;;;;;;;4.95;3.75;;;;;;;25.19;32.56;101803.63;5067909;28;20115;-65
2023/06/15 10:40:47;;;;;;;5.65;3.85;;;;;;;25.39;32.16;101807.03;5069285;28;20037;-66
2023/06/15 10:43:26;;;;;;;4.28;3.60;;;;;;;25.36;31.34;101797.13;5048599;28;20588;-65
2023/06/15 10:45:52;;;;;;;5.22;3.70;;;;;;;25.41;31.07;101798.97;5049648;28;20037;-65
2023/06/15 10:48:26;;;;;;;6.63;4.28;;;;;;;25.33;31.11;101802.66;5049223;28;20036;-65
2023/06/15 10:51:01;;;;;;;11.20;4.57;;;;;;;25.24;31.63;101811.16;5052372;28;20030;-65
2023/06/15 10:53:28;;;;;;;13.25;4.20;;;;;;;25.14;31.35;101812.28;5068062;28;20025;-65
2023/06/15 10:55:58;;;;;;;5.60;3.92;;;;;;;25.04;31.83;101804.03;5069324;28;20111;-66
2023/06/15 10:58:27;;;;;;;5.93;4.00;;;;;;;25.14;31.95;101803.75;5061577;28;20392;-65
2023/06/15 11:01:11;;;;;;;5.88;3.70;;;;;;;25.18;31.97;101801.94;5050771;28;20025;-65
2023/06/15 11:03:40;;;;;;;6.47;4.18;;;;;;;25.34;31.90;101795.78;5048931;28;20070;-65
2023/06/15 11:06:08;;;;;;;9.43;4.07;;;;;;;25.30;32.05;101791.94;5048726;28;20032;-65
2023/06/15 11:08:49;;;;;;;6.03;4.03;;;;;;;25.21;32.48;101794.75;5061246;28;20518;-65
2023/06/15 11:11:17;;;;;;;8.60;3.70;;;;;;;25.10;32.28;101797.06;5069465;28;20064;-64
2023/06/15 11:14:03;;;;;;;7.88;4.20;;;;;;;25.04;32.85;101798.34;5068473;28;20041;-64
2023/06/15 11:16:36;;;;;;;7.82;3.92;;;;;;;24.96;32.11;101793.47;5060826;28;20037;-65
2023/06/15 11:19:11;;;;;;;7.35;3.80;;;;;;;25.03;32.32;101792.97;5048370;28;20037;-65